Gordon Heights, New York
Current Conditions -  °F | °C
As of 11:19 AM on Friday 24 Oct 2014 (Local Time) from KHWV Reporting Station
Overcast Overcast  
Wind Chill: 51°   Ceiling: 2200
Heat Index: 51°   Visibility: 9mi
Dew Point: 48°   Wind: 18mph
Humidity: 89%   Direction: 330°NNW
Pressure: 29.78"   Gusts: 26mph
Location:  40.8228°N, 72.9822°W
Report Text: KHWV 241519Z AUTO 33016G23KT 9SM FEW008 SCT014 OVC022 11/09 A2978 RMK AO2 T01060089 TSNO
Loading
Personal Weather Stations






























Interactive Weather Map
Tropical Storm Tracking
New forecast layout! Learn more

10-Day Weather Forecast

Advertisements
Track Severe Weather on mobile